Time;durP1;ratioP1;P1;durP2;ratioP2;P2;SDS_P1;SDS_P2;PMS_P1;PMS_P2;Temp;Humidity;BMP_temperature;BMP_pressure;BME280_temperature;BME280_humidity;BME280_pressure;Samples;Min_cycle;Max_cycle;Signal;HPM_P1;HPM_P2
2023/03/24 00:01:04;;;;;;;1821.53;632.13;;;16.70;74.70;;;;;;5032717;28;20400;-38
2023/03/24 00:03:31;;;;;;;1771.00;621.08;;;16.70;74.70;;;;;;5035524;28;20554;-39
2023/03/24 00:06:03;;;;;;;1887.55;654.97;;;16.70;74.70;;;;;;5035563;28;20060;-39
2023/03/24 00:08:33;;;;;;;1704.53;603.08;;;16.70;74.70;;;;;;5035065;28;20140;-38
2023/03/24 00:11:05;;;;;;;1699.63;596.42;;;16.70;74.70;;;;;;5035864;28;20051;-38
2023/03/24 00:13:37;;;;;;;1898.68;659.00;;;16.70;74.70;;;;;;5034663;28;20136;-41
2023/03/24 00:16:08;;;;;;;1763.10;630.80;;;16.70;74.70;;;;;;5029264;28;20171;-39
2023/03/24 00:18:36;;;;;;;1954.43;672.75;;;16.70;74.70;;;;;;5035742;28;20111;-39
2023/03/24 00:21:04;;;;;;;1947.95;664.30;;;16.70;74.80;;;;;;5035634;28;20042;-37
2023/03/24 00:23:33;;;;;;;1999.53;676.65;;;16.70;74.90;;;;;;5034979;28;20153;-40
2023/03/24 00:26:06;;;;;;;1999.90;701.58;;;16.60;74.90;;;;;;5035206;28;20049;-39
2023/03/24 00:28:33;;;;;;;1999.90;689.88;;;16.60;75.10;;;;;;5034607;28;20541;-38
2023/03/24 00:31:03;;;;;;;1999.90;692.67;;;16.60;75.00;;;;;;5035405;28;20041;-39
2023/03/24 00:33:31;;;;;;;1999.90;700.80;;;16.60;75.00;;;;;;5035375;28;20076;-39
2023/03/24 00:35:58;;;;;;;1999.90;704.22;;;16.60;75.00;;;;;;5034490;28;20127;-38
2023/03/24 00:38:25;;;;;;;1999.90;723.85;;;16.60;75.00;;;;;;5035280;28;20063;-40
2023/03/24 00:40:52;;;;;;;1968.45;688.17;;;16.60;75.00;;;;;;5035166;28;20104;-39
2023/03/24 00:43:19;;;;;;;1983.78;687.88;;;16.60;75.10;;;;;;5034222;28;20484;-38
2023/03/24 00:45:46;;;;;;;1999.90;696.55;;;16.60;75.00;;;;;;5034754;28;20085;-38
2023/03/24 00:48:13;;;;;;;1989.25;689.92;;;16.60;75.60;;;;;;5034832;28;20140;-38
2023/03/24 00:50:44;;;;;;;1904.50;672.65;;;16.60;75.00;;;;;;5034358;28;20049;-38
2023/03/24 00:53:14;;;;;;;1999.90;705.63;;;16.60;75.10;;;;;;5035089;28;20132;-38
2023/03/24 00:55:45;;;;;;;1902.00;675.42;;;16.60;75.00;;;;;;5034933;28;20056;-37
2023/03/24 00:58:20;;;;;;;1907.18;673.08;;;16.60;75.00;;;;;;5034536;28;20052;-37
2023/03/24 01:00:52;;;;;;;1832.88;660.33;;;16.50;74.90;;;;;;5034958;28;20072;-38
2023/03/24 01:03:26;;;;;;;1848.07;653.75;;;16.50;75.00;;;;;;5034896;28;20140;-38
2023/03/24 01:05:56;;;;;;;1871.60;670.13;;;16.60;75.10;;;;;;5033928;28;20045;-39
2023/03/24 01:08:24;;;;;;;1891.78;665.95;;;16.50;75.00;;;;;;5034480;28;20136;-39
2023/03/24 01:10:52;;;;;;;1990.82;698.20;;;16.50;75.10;;;;;;5034148;28;20095;-41
2023/03/24 01:13:24;;;;;;;1999.28;700.70;;;16.50;75.00;;;;;;5032389;28;20499;-41
2023/03/24 01:15:51;;;;;;;1860.10;670.97;;;16.50;75.10;;;;;;5034124;28;20077;-40
2023/03/24 01:18:18;;;;;;;1999.90;719.28;;;16.50;74.90;;;;;;5027428;28;20313;-41
2023/03/24 01:20:47;;;;;;;1868.63;668.55;;;16.50;75.00;;;;;;5032618;28;20049;-38
2023/03/24 01:23:18;;;;;;;1940.25;692.55;;;16.50;75.10;;;;;;5034381;28;20060;-39
2023/03/24 01:25:46;;;;;;;1890.43;668.25;;;16.50;75.00;;;;;;5033825;28;20400;-39
2023/03/24 01:28:16;;;;;;;1999.72;702.55;;;16.50;75.00;;;;;;5034270;28;20071;-39
2023/03/24 01:30:42;;;;;;;1857.50;668.95;;;16.50;75.70;;;;;;5034110;28;20041;-39
2023/03/24 01:33:10;;;;;;;1856.47;670.00;;;16.50;75.10;;;;;;5033758;28;20050;-45
2023/03/24 01:35:36;;;;;;;1930.03;682.88;;;16.50;75.20;;;;;;5034182;28;20172;-40
2023/03/24 01:38:07;;;;;;;1667.00;620.60;;;16.50;75.10;;;;;;5034006;28;20073;-40
2023/03/24 01:40:35;;;;;;;1918.50;678.10;;;16.50;75.10;;;;;;5033502;28;20072;-38
2023/03/24 01:43:02;;;;;;;1877.72;668.58;;;16.50;75.10;;;;;;5033973;28;20056;-39
2023/03/24 01:45:49;;;;;;;1644.07;622.13;;;16.50;75.10;;;;;;5033660;28;20556;-39
2023/03/24 01:48:39;;;;;;;1639.68;601.90;;;16.50;75.20;;;;;;5034117;28;20057;-39
2023/03/24 01:51:11;;;;;;;1651.70;619.45;;;16.50;75.20;;;;;;5032089;28;20046;-40
2023/03/24 01:53:40;;;;;;;1646.15;617.45;;;16.50;75.20;;;;;;5032197;28;20412;-38
2023/03/24 01:56:07;;;;;;;1706.63;626.10;;;16.50;75.20;;;;;;5016378;28;20408;-41
2023/03/24 01:58:35;;;;;;;1653.18;620.97;;;16.50;75.30;;;;;;5032472;28;20140;-40
2023/03/24 02:01:02;;;;;;;1724.88;627.40;;;16.50;75.20;;;;;;5032986;28;20128;-39
2023/03/24 02:03:32;;;;;;;1758.13;645.00;;;16.50;75.20;;;;;;5032391;28;20132;-38
2023/03/24 02:06:01;;;;;;;1683.40;621.45;;;16.50;75.30;;;;;;5032483;28;20111;-39
2023/03/24 02:08:45;;;;;;;1909.15;683.63;;;16.50;75.20;;;;;;5033092;28;20056;-40
2023/03/24 02:11:12;;;;;;;1980.32;693.95;;;16.50;75.30;;;;;;5032524;28;20047;-40
2023/03/24 02:13:39;;;;;;;1883.20;667.50;;;16.50;75.30;;;;;;5033621;28;20053;-39
2023/03/24 02:16:17;;;;;;;1830.78;660.65;;;16.40;75.20;;;;;;5032680;28;20052;-38
2023/03/24 02:18:59;;;;;;;1999.90;714.67;;;16.50;75.10;;;;;;5031995;28;20447;-40
2023/03/24 02:21:38;;;;;;;1780.75;643.03;;;16.50;75.20;;;;;;5031803;28;20080;-43
2023/03/24 02:24:32;;;;;;;1999.90;707.15;;;16.50;75.10;;;;;;5023560;28;20085;-39
2023/03/24 02:27:17;;;;;;;1948.45;683.28;;;16.50;75.20;;;;;;5033294;28;20045;-39
2023/03/24 02:29:50;;;;;;;1999.90;715.03;;;16.50;75.10;;;;;;5032165;28;20428;-39
2023/03/24 02:32:39;;;;;;;1999.90;705.95;;;16.50;75.10;;;;;;5032890;28;20080;-39
2023/03/24 02:35:20;;;;;;;1942.30;675.88;;;16.50;75.00;;;;;;5032633;28;20056;-38
2023/03/24 02:38:00;;;;;;;1999.90;697.75;;;16.40;74.90;;;;;;5033124;28;20049;-38
2023/03/24 02:40:57;;;;;;;1999.90;708.08;;;16.40;74.90;;;;;;5032947;28;20129;-40
2023/03/24 02:43:27;;;;;;;1999.90;702.13;;;16.40;74.90;;;;;;5030738;28;20484;-38
2023/03/24 02:46:23;;;;;;;1999.90;702.28;;;16.40;74.90;;;;;;5032666;28;20132;-38
2023/03/24 02:49:41;;;;;;;1999.90;702.05;;;16.40;75.00;;;;;;5031560;28;20077;-38
2023/03/24 02:52:36;;;;;;;1961.50;675.65;;;16.40;74.90;;;;;;5030417;28;20084;-38
2023/03/24 02:55:07;;;;;;;1999.90;707.22;;;16.40;74.90;;;;;;5030507;28;20136;-38
2023/03/24 02:57:54;;;;;;;1999.90;744.83;;;16.40;74.90;;;;;;5026673;28;20472;-39
2023/03/24 03:00:31;;;;;;;1999.90;730.95;;;16.40;75.00;;;;;;5034140;28;20382;-39
2023/03/24 03:03:06;;;;;;;1999.90;727.35;;;16.40;74.90;;;;;;5031572;28;20049;-41
2023/03/24 03:05:41;;;;;;;1999.90;728.13;;;16.40;75.00;;;;;;5031764;28;20053;-38
2023/03/24 03:08:08;;;;;;;1999.90;712.45;;;16.40;75.00;;;;;;5031687;28;20052;-41
2023/03/24 03:10:37;;;;;;;1999.90;739.40;;;16.40;75.00;;;;;;5030779;28;20049;-38
2023/03/24 03:13:07;;;;;;;1999.90;719.78;;;16.30;74.90;;;;;;5031699;28;20045;-39
2023/03/24 03:15:37;;;;;;;1999.90;731.25;;;16.40;75.00;;;;;;5031255;28;20092;-39
2023/03/24 03:18:27;;;;;;;1999.90;680.28;;;16.40;74.90;;;;;;5032056;28;20416;-39
2023/03/24 03:20:58;;;;;;;1999.90;766.00;;;16.40;75.00;;;;;;5031635;28;20069;-41
2023/03/24 03:23:29;;;;;;;1999.90;771.25;;;16.40;75.00;;;;;;5031457;28;20060;-39
2023/03/24 03:26:04;;;;;;;1999.90;729.95;;;16.30;74.90;;;;;;5031179;28;20055;-39
2023/03/24 03:28:35;;;;;;;1999.90;738.88;;;16.30;74.90;;;;;;5022850;28;20483;-40
2023/03/24 03:31:05;;;;;;;1999.90;768.22;;;16.30;74.90;;;;;;5031217;28;20080;-38
2023/03/24 03:33:44;;;;;;;1999.90;750.22;;;16.30;74.90;;;;;;5030650;28;20618;-39
2023/03/24 03:36:26;;;;;;;1999.90;756.50;;;16.30;74.90;;;;;;5032625;28;20485;-38
2023/03/24 03:39:03;;;;;;;1999.90;771.10;;;16.30;74.90;;;;;;5034536;28;20096;-38
2023/03/24 03:41:30;;;;;;;1999.90;758.13;;;16.30;74.90;;;;;;5036494;28;20049;-38
2023/03/24 03:43:57;;;;;;;1999.90;772.40;;;16.30;74.90;;;;;;5034630;28;20045;-38
2023/03/24 03:46:24;;;;;;;1999.90;752.47;;;16.30;74.90;;;;;;5034604;28;20084;-38
2023/03/24 03:48:50;;;;;;;1999.90;729.55;;;16.30;74.90;;;;;;5035921;28;20506;-39
2023/03/24 03:51:17;;;;;;;1999.90;734.17;;;16.20;75.40;;;;;;5036105;28;20404;-39
2023/03/24 03:53:47;;;;;;;1999.90;733.00;;;16.30;74.80;;;;;;5035250;28;20084;-38
2023/03/24 03:56:19;;;;;;;1999.90;729.70;;;16.20;74.90;;;;;;5035010;28;20049;-40
2023/03/24 03:58:47;;;;;;;1999.90;720.13;;;16.20;74.90;;;;;;5035752;28;20490;-38
2023/03/24 04:01:17;;;;;;;1999.90;712.08;;;16.20;74.80;;;;;;5035143;28;20587;-38
2023/03/24 04:03:48;;;;;;;1999.90;702.45;;;16.20;74.80;;;;;;5035642;28;20046;-40
2023/03/24 04:06:39;;;;;;;1999.90;721.83;;;16.20;74.80;;;;;;5035819;28;20084;-38
2023/03/24 04:09:26;;;;;;;1999.90;707.85;;;16.20;74.80;;;;;;5034690;28;20060;-37
2023/03/24 04:12:00;;;;;;;1970.20;692.60;;;16.20;74.80;;;;;;5034812;28;20480;-39
2023/03/24 04:14:39;;;;;;;1929.78;682.25;;;16.20;74.80;;;;;;5033649;28;20097;-38
2023/03/24 04:17:34;;;;;;;1897.50;676.05;;;16.20;74.80;;;;;;5035464;28;20479;-38
2023/03/24 04:20:27;;;;;;;1858.95;658.75;;;16.20;74.80;;;;;;5035277;28;20492;-38
2023/03/24 04:23:01;;;;;;;1841.57;651.90;;;16.20;74.80;;;;;;5033697;28;20041;-38
2023/03/24 04:25:34;;;;;;;1800.65;646.42;;;16.20;74.80;;;;;;5035134;28;20322;-38
2023/03/24 04:28:04;;;;;;;1803.57;647.13;;;16.20;74.80;;;;;;5033346;28;20518;-38
2023/03/24 04:30:56;;;;;;;1720.75;633.70;;;16.20;74.80;;;;;;5030039;28;20140;-38
2023/03/24 04:33:27;;;;;;;1713.22;622.50;;;16.20;74.80;;;;;;5033389;28;20149;-38
2023/03/24 04:36:05;;;;;;;1673.82;618.20;;;16.20;74.80;;;;;;5034688;28;20041;-38
2023/03/24 04:38:34;;;;;;;1608.78;596.05;;;16.20;74.80;;;;;;5035344;28;20076;-37
2023/03/24 04:41:01;;;;;;;1598.57;590.45;;;16.20;74.80;;;;;;5033847;28;20073;-39
2023/03/24 04:43:35;;;;;;;1584.03;596.92;;;16.20;74.80;;;;;;5033506;28;20377;-39
2023/03/24 04:46:03;;;;;;;1573.97;576.55;;;16.20;74.70;;;;;;5033750;28;20072;-37
2023/03/24 04:48:30;;;;;;;1540.32;568.58;;;16.20;74.70;;;;;;5032717;28;20042;-40
2023/03/24 04:51:00;;;;;;;1471.82;541.30;;;16.10;74.60;;;;;;5033055;28;20084;-38
2023/03/24 04:53:28;;;;;;;1484.15;545.90;;;16.10;74.70;;;;;;5033902;28;20061;-38
2023/03/24 04:56:03;;;;;;;1447.43;549.83;;;16.10;74.70;;;;;;5034399;28;20053;-39
2023/03/24 04:58:30;;;;;;;1336.50;511.23;;;16.10;74.70;;;;;;5035225;28;20073;-38
2023/03/24 05:00:57;;;;;;;1375.60;527.90;;;16.10;74.60;;;;;;5034631;28;20073;-37
2023/03/24 05:03:24;;;;;;;1384.88;528.15;;;16.00;74.70;;;;;;5013085;28;20075;-39
2023/03/24 05:05:51;;;;;;;1365.75;523.28;;;16.10;74.80;;;;;;5001696;28;20049;-39
2023/03/24 05:08:18;;;;;;;1301.55;503.27;;;16.10;74.80;;;;;;5014596;28;20038;-41
2023/03/24 05:10:45;;;;;;;1279.95;494.35;;;16.00;74.80;;;;;;5014188;28;20050;-40
2023/03/24 05:13:12;;;;;;;1240.55;480.75;;;16.00;74.80;;;;;;5014716;28;20045;-40
2023/03/24 05:15:39;;;;;;;1219.03;479.13;;;16.00;74.90;;;;;;5014207;28;20475;-37
2023/03/24 05:18:06;;;;;;;1196.57;464.70;;;16.00;74.80;;;;;;5013904;28;20104;-37
2023/03/24 05:20:33;;;;;;;1178.55;457.63;;;16.00;74.80;;;;;;5014727;28;20090;-39
2023/03/24 05:23:00;;;;;;;1151.05;447.70;;;16.00;74.90;;;;;;5014292;28;20050;-39
2023/03/24 05:25:27;;;;;;;1130.45;436.33;;;16.00;74.80;;;;;;5013624;28;20489;-39
2023/03/24 05:27:54;;;;;;;1038.60;409.83;;;16.00;74.80;;;;;;5014282;28;20137;-39
2023/03/24 05:30:21;;;;;;;1085.78;425.40;;;16.00;74.80;;;;;;5014122;28;20517;-39
2023/03/24 05:32:47;;;;;;;1072.53;414.48;;;16.00;74.80;;;;;;5013870;28;20092;-38
2023/03/24 05:35:14;;;;;;;1068.53;415.40;;;16.00;74.80;;;;;;5009622;28;20096;-37
2023/03/24 05:37:41;;;;;;;1024.10;398.05;;;16.00;74.80;;;;;;5033343;28;20049;-39
2023/03/24 05:40:08;;;;;;;1009.13;408.77;;;16.00;74.70;;;;;;5030065;28;20148;-38
2023/03/24 05:42:35;;;;;;;954.75;366.15;;;16.00;74.80;;;;;;5014162;28;20104;-38
2023/03/24 05:45:02;;;;;;;968.17;377.40;;;16.00;75.40;;;;;;5013521;28;20049;-38
2023/03/24 05:47:29;;;;;;;915.42;355.83;;;16.00;74.80;;;;;;5014163;28;20137;-38
2023/03/24 05:49:56;;;;;;;891.92;346.35;;;16.00;74.80;;;;;;5013718;28;20453;-38
2023/03/24 05:52:22;;;;;;;887.90;353.95;;;16.00;74.70;;;;;;5013621;28;20072;-40
2023/03/24 05:54:51;;;;;;;903.63;353.13;;;16.00;74.80;;;;;;5014056;28;20046;-38
2023/03/24 05:57:18;;;;;;;863.22;339.73;;;16.00;74.80;;;;;;5013866;28;20085;-38
2023/03/24 05:59:45;;;;;;;796.72;310.42;;;16.00;74.80;;;;;;5012920;28;20050;-39
2023/03/24 06:02:11;;;;;;;820.20;320.05;;;16.00;74.70;;;;;;5013808;28;20065;-39
2023/03/24 06:04:38;;;;;;;811.65;316.88;;;16.00;74.70;;;;;;4918950;28;20455;-39
2023/03/24 06:07:05;;;;;;;775.78;303.83;;;16.00;74.60;;;;;;5013016;28;20418;-38
2023/03/24 06:09:34;;;;;;;784.83;310.58;;;15.90;74.60;;;;;;5013734;28;20132;-39
2023/03/24 06:12:04;;;;;;;761.40;293.38;;;16.00;74.60;;;;;;5013351;28;20056;-38
2023/03/24 06:14:32;;;;;;;749.25;292.65;;;16.00;74.60;;;;;;5012872;28;20072;-40
2023/03/24 06:16:59;;;;;;;725.95;277.08;;;16.00;74.50;;;;;;5013636;28;20081;-38
2023/03/24 06:19:29;;;;;;;751.33;289.45;;;16.00;75.00;;;;;;5013379;28;20046;-38
2023/03/24 06:21:59;;;;;;;719.78;278.33;;;16.00;74.40;;;;;;5012686;28;20057;-38
2023/03/24 06:24:26;;;;;;;680.22;256.98;;;16.00;74.40;;;;;;5013735;28;20046;-37
2023/03/24 06:26:57;;;;;;;685.53;262.85;;;16.00;74.30;;;;;;5013492;28;20144;-38
2023/03/24 06:29:24;;;;;;;688.17;262.05;;;16.00;74.30;;;;;;5012422;28;20081;-36
2023/03/24 06:31:51;;;;;;;693.63;267.73;;;16.00;74.30;;;;;;5013194;28;20050;-41
2023/03/24 06:34:17;;;;;;;689.17;266.50;;;16.00;74.10;;;;;;5016111;28;20078;-47
2023/03/24 06:36:44;;;;;;;692.67;262.38;;;16.10;74.10;;;;;;5016714;28;20500;-40
2023/03/24 06:39:12;;;;;;;653.30;249.05;;;16.10;74.60;;;;;;5012070;28;20077;-40
2023/03/24 06:41:38;;;;;;;637.20;241.00;;;16.10;73.80;;;;;;5026511;28;20049;-42
2023/03/24 06:44:05;;;;;;;654.25;255.63;;;16.10;73.90;;;;;;5032634;28;20111;-43
2023/03/24 06:46:32;;;;;;;637.38;244.20;;;16.20;74.40;;;;;;5032589;28;20140;-46
2023/03/24 06:48:59;;;;;;;651.13;248.45;;;16.20;75.00;;;;;;5032510;28;20046;-38
2023/03/24 06:51:25;;;;;;;607.13;219.23;;;16.20;75.00;;;;;;5032674;28;20056;-39
2023/03/24 06:53:52;;;;;;;550.30;192.82;;;16.30;74.50;;;;;;5032544;28;20050;-39
2023/03/24 06:56:19;;;;;;;553.20;189.55;;;16.30;74.40;;;;;;5032047;28;20061;-39
2023/03/24 06:58:47;;;;;;;614.33;223.43;;;16.30;74.40;;;;;;5032675;28;20048;-38
2023/03/24 07:01:14;;;;;;;594.92;217.30;;;16.30;75.20;;;;;;5032553;28;20056;-39
2023/03/24 07:03:42;;;;;;;592.97;215.10;;;16.30;75.50;;;;;;5025233;28;20038;-38
2023/03/24 07:06:09;;;;;;;577.75;211.60;;;16.30;74.90;;;;;;5012423;28;20049;-38
2023/03/24 07:08:36;;;;;;;548.20;198.13;;;16.30;75.00;;;;;;5012696;28;20050;-38
2023/03/24 07:11:05;;;;;;;564.25;195.65;;;16.30;75.20;;;;;;5013211;28;20417;-42
2023/03/24 07:13:32;;;;;;;516.78;187.80;;;16.30;75.00;;;;;;5016538;28;20460;-39
2023/03/24 07:15:59;;;;;;;525.28;188.57;;;16.30;75.00;;;;;;5016065;28;20053;-39
2023/03/24 07:18:26;;;;;;;522.65;184.02;;;16.30;75.00;;;;;;5016042;28;20046;-46
2023/03/24 07:20:52;;;;;;;519.33;177.38;;;16.30;74.70;;;;;;5015836;28;20394;-45
2023/03/24 07:23:19;;;;;;;445.33;153.30;;;16.40;75.20;;;;;;5014854;28;20136;-44
2023/03/24 07:25:46;;;;;;;458.40;153.48;;;16.30;74.30;;;;;;5013792;28;20049;-42
2023/03/24 07:28:13;;;;;;;465.20;158.23;;;16.30;74.20;;;;;;5014842;28;20133;-41
2023/03/24 07:30:39;;;;;;;455.15;156.35;;;16.30;74.30;;;;;;5014712;28;20054;-41
2023/03/24 07:33:08;;;;;;;464.58;158.15;;;16.30;74.40;;;;;;5014783;28;20046;-43
2023/03/24 07:35:35;;;;;;;453.45;156.48;;;16.30;74.40;;;;;;5014826;28;20052;-44
2023/03/24 07:38:02;;;;;;;444.55;154.10;;;16.30;74.50;;;;;;5015308;28;20058;-41
2023/03/24 07:40:29;;;;;;;451.45;155.57;;;16.30;74.50;;;;;;5016365;28;20065;-46
2023/03/24 07:42:59;;;;;;;451.70;153.02;;;16.30;74.50;;;;;;5014728;28;20050;-42
2023/03/24 07:45:27;;;;;;;424.08;146.25;;;16.40;74.60;;;;;;5028960;28;20056;-44
2023/03/24 07:47:56;;;;;;;431.98;149.55;;;16.40;74.60;;;;;;5035739;28;20136;-42
2023/03/24 07:50:22;;;;;;;424.40;143.48;;;16.30;74.50;;;;;;5035547;28;20417;-41
2023/03/24 07:52:49;;;;;;;403.02;142.05;;;16.40;74.50;;;;;;5035249;28;20045;-42
2023/03/24 07:55:16;;;;;;;393.63;139.82;;;16.40;74.40;;;;;;5035654;28;20060;-44
2023/03/24 07:57:45;;;;;;;397.38;140.27;;;16.40;74.20;;;;;;5035515;28;20080;-42
2023/03/24 08:00:16;;;;;;;406.00;139.40;;;16.50;74.00;;;;;;5035107;28;20064;-42
2023/03/24 08:02:45;;;;;;;389.88;136.15;;;16.50;74.00;;;;;;5035721;28;20049;-49
2023/03/24 08:05:13;;;;;;;371.52;131.52;;;16.50;73.90;;;;;;5035482;28;20140;-43
2023/03/24 08:07:43;;;;;;;371.75;130.48;;;16.50;73.90;;;;;;5035244;28;20067;-42
2023/03/24 08:10:11;;;;;;;370.58;126.75;;;16.50;74.00;;;;;;5035737;28;20053;-43
2023/03/24 08:12:38;;;;;;;360.83;127.57;;;16.50;73.90;;;;;;5035364;28;20148;-40
2023/03/24 08:15:06;;;;;;;355.35;122.70;;;16.50;73.80;;;;;;5025457;28;20056;-39
2023/03/24 08:17:33;;;;;;;349.90;123.85;;;16.50;73.80;;;;;;5015491;28;20390;-40
2023/03/24 08:20:00;;;;;;;351.95;123.95;;;16.50;73.90;;;;;;5015271;28;20056;-40
2023/03/24 08:22:31;;;;;;;324.77;115.78;;;16.50;74.60;;;;;;5015365;28;20127;-44
2023/03/24 08:24:57;;;;;;;331.00;116.63;;;16.50;74.10;;;;;;5015421;28;20050;-46
2023/03/24 08:27:24;;;;;;;319.45;114.10;;;16.50;73.90;;;;;;5014518;28;20539;-45
2023/03/24 08:29:51;;;;;;;310.35;113.38;;;16.50;73.70;;;;;;5015228;28;20056;-43
2023/03/24 08:32:17;;;;;;;316.77;113.28;;;16.50;73.80;;;;;;5015202;28;20046;-45
2023/03/24 08:34:44;;;;;;;306.83;110.07;;;16.50;73.80;;;;;;5014600;28;20060;-44
2023/03/24 08:37:11;;;;;;;305.13;108.13;;;16.50;73.80;;;;;;5015242;28;20057;-47
2023/03/24 08:39:38;;;;;;;299.33;106.20;;;16.50;73.50;;;;;;5015010;28;20053;-44
2023/03/24 08:42:05;;;;;;;296.92;102.28;;;16.50;73.60;;;;;;5014392;28;20073;-46
2023/03/24 08:44:32;;;;;;;285.13;102.10;;;16.50;73.40;;;;;;5014802;28;20417;-48
2023/03/24 08:47:02;;;;;;;289.52;103.90;;;16.50;73.40;;;;;;5014823;28;20140;-41
2023/03/24 08:49:29;;;;;;;281.00;102.45;;;16.60;73.50;;;;;;5026488;28;20057;-43
2023/03/24 08:51:56;;;;;;;288.88;103.65;;;16.60;73.50;;;;;;5034581;28;20503;-43
2023/03/24 08:54:23;;;;;;;258.08;95.50;;;16.60;74.20;;;;;;5034509;28;20081;-47
2023/03/24 08:56:50;;;;;;;273.13;97.00;;;16.60;73.70;;;;;;5034020;28;20061;-44
2023/03/24 08:59:17;;;;;;;261.80;96.43;;;16.60;73.60;;;;;;5034643;28;20386;-44
2023/03/24 09:01:44;;;;;;;247.55;88.68;;;16.60;73.40;;;;;;5034920;28;20445;-43
2023/03/24 09:04:11;;;;;;;246.98;90.25;;;16.60;74.10;;;;;;5033873;28;20500;-46
2023/03/24 09:06:38;;;;;;;232.43;85.03;;;16.60;73.50;;;;;;5034833;28;20066;-48
2023/03/24 09:09:06;;;;;;;243.10;88.30;;;16.70;73.50;;;;;;5034103;28;20138;-46
2023/03/24 09:11:33;;;;;;;226.48;81.40;;;16.70;73.50;;;;;;5034679;28;20056;-45
2023/03/24 09:14:01;;;;;;;229.98;85.43;;;16.60;73.40;;;;;;5033060;28;20045;-44
2023/03/24 09:16:28;;;;;;;235.85;85.45;;;16.70;73.40;;;;;;5013789;28;20050;-43
2023/03/24 09:18:55;;;;;;;222.85;82.72;;;16.70;73.40;;;;;;5014240;28;20046;-44
2023/03/24 09:21:22;;;;;;;221.65;82.82;;;16.70;73.40;;;;;;5014272;28;20420;-43
2023/03/24 09:23:49;;;;;;;214.30;83.35;;;16.70;73.40;;;;;;5013549;28;20412;-43
2023/03/24 09:26:15;;;;;;;195.70;73.18;;;16.80;73.20;;;;;;5014356;28;20090;-43
2023/03/24 09:28:42;;;;;;;175.55;66.13;;;16.80;73.00;;;;;;5013999;28;20501;-39
2023/03/24 09:31:10;;;;;;;172.32;66.65;;;16.90;72.90;;;;;;5013888;28;20056;-47
2023/03/24 09:33:37;;;;;;;174.20;65.72;;;16.90;72.80;;;;;;5013446;28;20046;-46
2023/03/24 09:36:04;;;;;;;151.95;60.50;;;17.00;72.70;;;;;;5014078;28;20145;-48
2023/03/24 09:38:32;;;;;;;134.07;55.05;;;17.00;72.60;;;;;;5013527;28;20099;-43
2023/03/24 09:41:02;;;;;;;141.30;57.65;;;17.10;72.70;;;;;;5013987;28;20475;-43
2023/03/24 09:43:51;;;;;;;121.50;53.90;;;17.10;72.60;;;;;;5014089;28;20100;-42
2023/03/24 09:46:48;;;;;;;128.70;54.47;;;17.20;73.30;;;;;;5012122;28;20052;-41
2023/03/24 09:49:22;;;;;;;117.60;50.45;;;17.30;73.40;;;;;;5012094;28;20046;-42
2023/03/24 09:51:49;;;;;;;116.20;46.80;;;17.20;73.30;;;;;;5009410;28;20058;-43
2023/03/24 09:54:45;;;;;;;107.97;46.50;;;17.30;74.90;;;;;;5031143;28;20076;-42
2023/03/24 09:57:36;;;;;;;98.03;42.88;;;17.40;73.90;;;;;;4967664;28;20048;-42
2023/03/24 10:00:18;;;;;;;97.80;43.35;;;17.40;73.30;;;;;;5032131;28;20492;-39
2023/03/24 10:02:45;;;;;;;93.50;42.58;;;17.40;72.90;;;;;;5032742;28;20054;-40
2023/03/24 10:05:34;;;;;;;90.38;38.90;;;17.40;72.70;;;;;;5032710;28;20077;-40
2023/03/24 10:08:25;;;;;;;85.68;36.95;;;17.40;72.60;;;;;;5032072;28;20496;-39
2023/03/24 10:10:51;;;;;;;71.68;32.42;;;17.40;72.10;;;;;;5033341;28;20073;-39
2023/03/24 10:13:29;;;;;;;70.88;31.13;;;17.40;71.90;;;;;;5032610;28;20049;-39
2023/03/24 10:16:29;;;;;;;73.45;32.53;;;17.50;71.90;;;;;;5015212;28;20077;-46
2023/03/24 10:18:56;;;;;;;71.47;29.77;;;17.50;71.90;;;;;;5012263;28;20073;-44
2023/03/24 10:21:26;;;;;;;67.25;29.55;;;17.50;71.80;;;;;;5012551;28;20049;-47
2023/03/24 10:24:22;;;;;;;64.93;29.83;;;17.50;71.70;;;;;;5012647;28;20119;-47
2023/03/24 10:27:15;;;;;;;65.95;29.50;;;17.50;71.50;;;;;;5012338;28;20489;-41
2023/03/24 10:29:44;;;;;;;62.30;27.35;;;17.50;71.50;;;;;;5012782;28;20054;-40
2023/03/24 10:32:20;;;;;;;65.03;26.10;;;17.50;71.50;;;;;;5012774;28;20065;-61
2023/03/24 10:34:56;;;;;;;59.50;25.70;;;17.60;71.60;;;;;;5011284;28;20579;-46
2023/03/24 10:37:23;;;;;;;70.25;27.33;;;17.60;71.90;;;;;;5012055;28;20045;-47
2023/03/24 10:39:50;;;;;;;60.30;25.48;;;17.60;72.30;;;;;;5009270;28;20523;-50
2023/03/24 10:42:22;;;;;;;45.45;17.20;;;17.80;72.30;;;;;;5007238;28;20077;-49
2023/03/24 10:44:49;;;;;;;43.45;15.18;;;17.70;69.50;;;;;;5008121;28;20050;-44
2023/03/24 10:47:18;;;;;;;36.47;12.48;;;17.70;67.60;;;;;;5007828;28;20107;-48
2023/03/24 10:49:53;;;;;;;34.50;8.50;;;17.60;66.50;;;;;;4991032;28;20050;-47
2023/03/24 10:52:20;;;;;;;31.02;6.97;;;17.50;65.80;;;;;;5009073;28;20456;-48
2023/03/24 10:54:57;;;;;;;29.10;7.10;;;17.40;64.60;;;;;;4982254;28;20116;-46
2023/03/24 10:57:24;;;;;;;15.77;4.88;;;17.30;66.50;;;;;;5015628;28;20144;-43
2023/03/24 11:00:18;;;;;;;27.13;6.13;;;17.50;66.40;;;;;;5027910;28;20068;-44
2023/03/24 11:02:45;;;;;;;18.48;5.68;;;17.60;66.00;;;;;;5028078;28;20068;-43
2023/03/24 11:05:21;;;;;;;20.45;5.68;;;17.80;66.40;;;;;;5027448;28;20045;-45
2023/03/24 11:07:48;;;;;;;24.20;5.57;;;17.80;66.40;;;;;;5027727;28;20642;-48
2023/03/24 11:10:23;;;;;;;19.70;5.80;;;17.90;67.00;;;;;;5027190;28;20540;-52
2023/03/24 11:12:53;;;;;;;16.50;4.82;;;18.00;67.40;;;;;;5028884;28;20152;-50
2023/03/24 11:15:21;;;;;;;16.50;5.90;;;18.00;67.00;;;;;;5016143;28;20145;-49
2023/03/24 11:17:56;;;;;;;18.70;5.20;;;18.10;67.30;;;;;;5008168;28;20046;-51
2023/03/24 11:20:31;;;;;;;20.50;5.47;;;18.30;66.90;;;;;;5005908;28;20196;-50
2023/03/24 11:23:34;;;;;;;16.25;5.40;;;18.30;66.20;;;;;;4996036;28;20042;-49
2023/03/24 11:26:22;;;;;;;16.77;5.50;;;18.30;66.80;;;;;;5007021;28;20060;-52
2023/03/24 11:28:56;;;;;;;16.80;5.05;;;18.40;66.70;;;;;;4994782;28;20068;-47
2023/03/24 11:31:25;;;;;;;12.77;4.72;;;18.30;67.00;;;;;;5001150;28;20074;-47
2023/03/24 11:34:07;;;;;;;14.85;4.90;;;18.30;66.80;;;;;;5015580;28;20386;-49
2023/03/24 11:36:36;;;;;;;15.00;4.90;;;18.30;67.00;;;;;;5022432;28;20077;-47
2023/03/24 11:39:17;;;;;;;16.50;4.55;;;18.40;67.00;;;;;;5013775;28;20050;-48
2023/03/24 11:42:09;;;;;;;18.25;5.10;;;18.40;68.00;;;;;;4998000;28;20563;-44
2023/03/24 11:44:45;;;;;;;13.27;4.35;;;18.40;67.20;;;;;;5007443;28;20050;-50
2023/03/24 11:47:27;;;;;;;14.43;4.95;;;18.40;67.70;;;;;;5007818;28;20481;-47
2023/03/24 11:50:13;;;;;;;13.27;4.57;;;18.40;67.00;;;;;;5008066;28;20052;-46
2023/03/24 11:52:46;;;;;;;13.13;4.00;;;18.40;66.60;;;;;;5023293;28;20050;-44
2023/03/24 11:55:46;;;;;;;12.27;4.07;;;18.40;66.60;;;;;;4999011;28;20085;-46
2023/03/24 11:58:38;;;;;;;12.35;3.67;;;18.40;66.50;;;;;;5001696;28;20100;-45
2023/03/24 12:01:14;;;;;;;11.25;3.85;;;18.50;66.20;;;;;;5010778;28;20097;-45
2023/03/24 12:04:06;;;;;;;11.82;3.85;;;18.50;66.50;;;;;;5012242;28;20471;-47
2023/03/24 12:06:41;;;;;;;12.40;3.92;;;18.50;66.50;;;;;;5026184;28;20575;-49
2023/03/24 12:09:38;;;;;;;11.25;3.60;;;18.60;66.30;;;;;;5011592;28;20485;-47
2023/03/24 12:12:19;;;;;;;13.93;4.00;;;18.50;65.90;;;;;;4989809;28;20050;-46
2023/03/24 12:15:11;;;;;;;12.30;4.15;;;18.50;66.50;;;;;;5025352;28;20080;-51
2023/03/24 12:18:30;;;;;;;13.98;3.85;;;18.60;65.90;;;;;;5000212;28;20050;-47
2023/03/24 12:21:33;;;;;;;15.02;3.60;;;18.70;66.40;;;;;;5011128;28;20501;-47
2023/03/24 12:24:34;;;;;;;13.02;3.53;;;18.60;66.10;;;;;;5026943;28;20069;-50
2023/03/24 12:27:01;;;;;;;12.60;3.55;;;18.70;65.90;;;;;;5010650;28;20049;-50
2023/03/24 12:29:28;;;;;;;12.30;3.33;;;18.70;65.80;;;;;;5000346;28;20519;-50
2023/03/24 12:32:19;;;;;;;11.88;3.80;;;18.70;65.90;;;;;;5008559;28;20531;-53
2023/03/24 12:34:59;;;;;;;9.85;3.13;;;18.60;66.60;;;;;;5025260;28;20455;-44
2023/03/24 12:37:44;;;;;;;12.80;3.80;;;18.70;65.80;;;;;;5025835;28;20058;-47